Time;durP1;ratioP1;P1;durP2;ratioP2;P2;SDS_P1;SDS_P2;PMS_P1;PMS_P2;Temp;Humidity;BMP_temperature;BMP_pressure;BME280_temperature;BME280_humidity;BME280_pressure;Samples;Min_cycle;Max_cycle;Signal;HPM_P1;HPM_P2
2021/03/31 00:00:47;;;;;;;;;;;;;;;4.88;49.99;101629.83;1767456;80;21223;-63
2021/03/31 00:03:17;;;;;;;;;;;;;;;4.91;49.96;101628.20;1770561;80;20245;-64
2021/03/31 00:05:45;;;;;;;;;;;;;;;4.97;49.89;101628.60;1763633;80;20505;-64
2021/03/31 00:08:14;;;;;;;;;;;;;;;5.00;49.70;101627.80;1748976;81;20857;-63
2021/03/31 00:10:48;;;;;;;;;;;;;;;4.97;49.61;101631.27;1751145;81;20238;-63
2021/03/31 00:13:16;;;;;;;;;;;;;;;4.91;49.73;101630.03;1759305;81;21244;-64
2021/03/31 00:15:44;;;;;;;;;;;;;;;4.87;49.78;101627.33;1751403;81;20189;-63
2021/03/31 00:18:14;;;;;;;;;;;;;;;4.79;49.94;101625.42;1752134;81;20294;-64
2021/03/31 00:20:42;;;;;;;;;;;;;;;4.72;50.06;101617.20;1751600;81;20228;-64
2021/03/31 00:23:11;;;;;;;;;;;;;;;4.66;50.22;101616.47;1748239;81;20245;-64
2021/03/31 00:25:39;;;;;;;;;;;;;;;4.59;50.44;101615.89;1750943;81;21193;-63
2021/03/31 00:28:08;;;;;;;;;;;;;;;4.55;50.62;101614.86;1754815;81;21102;-63
2021/03/31 00:30:37;;;;;;;;;;;;;;;4.54;50.80;101617.17;1752514;80;20291;-63
2021/03/31 00:33:05;;;;;;;;;;;;;;;4.59;50.88;101614.06;1751233;81;20219;-65
2021/03/31 00:35:33;;;;;;;;;;;;;;;4.67;51.01;101614.67;1751383;81;20492;-64
2021/03/31 00:38:01;;;;;;;;;;;;;;;4.71;50.78;101612.89;1749794;81;22709;-63
2021/03/31 00:40:38;;;;;;;;;;;;;;;4.75;50.75;101612.09;1752175;81;20614;-63
2021/03/31 00:43:06;;;;;;;;;;;;;;;4.79;50.76;101606.83;1752513;81;20271;-64
2021/03/31 00:45:34;;;;;;;;;;;;;;;4.81;50.54;101604.84;1748744;81;20249;-65
2021/03/31 00:48:05;;;;;;;;;;;;;;;4.76;50.52;101607.13;1752035;81;20288;-64
2021/03/31 00:50:32;;;;;;;;;;;;;;;4.67;50.69;101605.38;1717888;81;21197;-63
2021/03/31 00:53:02;;;;;;;;;;;;;;;4.59;50.89;101599.95;1717462;81;20261;-64
2021/03/31 00:55:30;;;;;;;;;;;;;;;4.51;51.05;101602.03;1749052;81;20311;-64
2021/03/31 00:57:58;;;;;;;;;;;;;;;4.42;51.30;101600.24;1750716;81;20161;-64
2021/03/31 01:00:26;;;;;;;;;;;;;;;4.35;51.50;101599.51;1752866;81;20265;-64
2021/03/31 01:02:54;;;;;;;;;;;;;;;4.37;51.65;101587.41;1674173;84;21691;-62
2021/03/31 01:05:25;;;;;;;;;;;;;;;4.33;51.62;101586.89;1672453;84;20513;-64
2021/03/31 01:08:01;;;;;;;;;;;;;;;4.30;51.78;101592.49;1825411;77;20277;-65
2021/03/31 01:10:32;;;;;;;;;;;;;;;4.21;51.91;101591.55;1804325;79;20155;-64
2021/03/31 01:13:04;;;;;;;;;;;;;;;4.18;51.99;101587.01;1799745;79;21379;-63
2021/03/31 01:15:42;;;;;;;;;;;;;;;4.15;52.11;101592.14;1801822;79;20997;-63
2021/03/31 01:18:30;;;;;;;;;;;;;;;4.07;52.23;101589.37;1797535;79;20231;-64
2021/03/31 01:21:22;;;;;;;;;;;;;;;4.02;52.47;101593.78;1801001;79;20156;-63
2021/03/31 01:24:15;;;;;;;;;;;;;;;4.03;52.46;101586.18;1800681;79;20163;-63
2021/03/31 01:26:48;;;;;;;;;;;;;;;4.01;52.45;101588.12;1803016;79;21353;-63
2021/03/31 01:29:28;;;;;;;;;;;;;;;3.97;52.59;101587.23;1800281;79;20113;-63
2021/03/31 01:32:22;;;;;;;;;;;;;;;3.96;52.68;101593.05;1798818;79;20207;-64
2021/03/31 01:34:56;;;;;;;;;;;;;;;3.97;52.65;101591.22;1774928;79;20313;-63
2021/03/31 01:37:27;;;;;;;;;;;;;;;3.93;52.65;101587.17;1804463;79;20239;-63
2021/03/31 01:39:55;;;;;;;;;;;;;;;3.88;52.72;101588.94;1801015;79;21201;-63
2021/03/31 01:42:23;;;;;;;;;;;;;;;3.84;52.77;101584.89;1801104;78;20202;-62
2021/03/31 01:44:54;;;;;;;;;;;;;;;3.83;52.83;101588.55;1802707;79;20232;-64
2021/03/31 01:47:22;;;;;;;;;;;;;;;3.81;52.91;101586.05;1798342;79;20251;-64
2021/03/31 01:49:50;;;;;;;;;;;;;;;3.81;52.93;101582.53;1798433;79;20294;-64
2021/03/31 01:52:18;;;;;;;;;;;;;;;3.77;53.01;101578.48;1795741;79;21134;-64
2021/03/31 01:54:46;;;;;;;;;;;;;;;3.78;53.07;101577.02;1798582;79;20244;-65
2021/03/31 01:57:14;;;;;;;;;;;;;;;3.79;53.07;101574.72;1800035;79;20194;-64
2021/03/31 01:59:42;;;;;;;;;;;;;;;3.82;53.08;101572.28;1797975;79;20204;-63
2021/03/31 02:02:11;;;;;;;;;;;;;;;3.86;52.99;101573.66;1755018;79;20242;-65
2021/03/31 02:04:39;;;;;;;;;;;;;;;3.89;52.85;101572.05;1803695;79;21368;-64
2021/03/31 02:07:09;;;;;;;;;;;;;;;3.88;52.84;101569.55;1787279;79;20194;-64
2021/03/31 02:09:39;;;;;;;;;;;;;;;3.88;52.84;101563.73;1776948;80;20135;-64
2021/03/31 02:12:08;;;;;;;;;;;;;;;3.93;52.81;101563.30;1777937;80;20238;-65
2021/03/31 02:14:38;;;;;;;;;;;;;;;3.93;52.70;101565.48;1777929;80;20258;-64
2021/03/31 02:17:11;;;;;;;;;;;;;;;3.93;52.64;101560.17;1772684;80;21961;-66
2021/03/31 02:19:39;;;;;;;;;;;;;;;3.91;52.68;101560.79;1773013;80;20163;-66
2021/03/31 02:22:07;;;;;;;;;;;;;;;3.89;52.71;101562.77;1775744;80;20231;-65
2021/03/31 02:24:36;;;;;;;;;;;;;;;3.92;52.69;101557.66;1685586;84;20279;-65
2021/03/31 02:27:06;;;;;;;;;;;;;;;3.94;52.58;101559.17;1680693;84;20273;-65
2021/03/31 02:29:34;;;;;;;;;;;;;;;3.93;52.50;101553.53;1685111;84;21211;-64
2021/03/31 02:32:04;;;;;;;;;;;;;;;3.94;52.40;101551.71;1680798;84;20324;-65
2021/03/31 02:34:31;;;;;;;;;;;;;;;3.90;52.42;101548.52;1684071;84;20262;-66
2021/03/31 02:37:07;;;;;;;;;;;;;;;3.90;52.50;101543.22;1814704;77;20270;-66
2021/03/31 02:39:37;;;;;;;;;;;;;;;3.82;52.57;101537.79;1829228;77;20181;-65
2021/03/31 02:42:09;;;;;;;;;;;;;;;3.79;52.67;101538.08;1832484;77;22083;-65
2021/03/31 02:44:41;;;;;;;;;;;;;;;3.76;52.76;101541.03;1834644;77;20166;-64
2021/03/31 02:47:10;;;;;;;;;;;;;;;3.70;52.89;101537.63;1833762;77;20213;-65
2021/03/31 02:49:40;;;;;;;;;;;;;;;3.66;53.01;101542.37;1832322;77;20170;-65
2021/03/31 02:52:09;;;;;;;;;;;;;;;3.65;53.19;101537.56;1830186;77;20176;-64
2021/03/31 02:54:37;;;;;;;;;;;;;;;3.71;53.23;101541.94;1832761;77;21192;-66
2021/03/31 02:57:08;;;;;;;;;;;;;;;3.78;53.13;101537.23;1835278;77;20193;-66
2021/03/31 02:59:40;;;;;;;;;;;;;;;3.86;53.04;101538.67;1833645;77;20160;-64
2021/03/31 03:02:08;;;;;;;;;;;;;;;3.96;52.87;101533.34;1829674;77;21787;-63
2021/03/31 03:04:38;;;;;;;;;;;;;;;4.02;52.65;101534.58;1833671;77;20256;-64
2021/03/31 03:07:06;;;;;;;;;;;;;;;4.06;52.52;101531.95;1830495;77;22129;-65
2021/03/31 03:09:36;;;;;;;;;;;;;;;4.10;52.35;101535.99;1823174;77;20168;-65
2021/03/31 03:12:06;;;;;;;;;;;;;;;4.12;52.32;101531.86;1818288;77;20129;-64
2021/03/31 03:14:34;;;;;;;;;;;;;;;4.15;52.22;101534.22;1820700;77;20218;-64
2021/03/31 03:17:04;;;;;;;;;;;;;;;4.18;52.16;101528.61;1823099;77;20147;-65
2021/03/31 03:19:34;;;;;;;;;;;;;;;4.21;52.03;101529.17;1819262;77;20180;-66
2021/03/31 03:22:04;;;;;;;;;;;;;;;4.23;51.91;101526.87;1812128;78;20220;-64
2021/03/31 03:24:32;;;;;;;;;;;;;;;4.24;51.90;101524.53;1825007;77;20294;-64
2021/03/31 03:27:00;;;;;;;;;;;;;;;4.24;51.86;101518.75;1822502;77;20200;-67
2021/03/31 03:29:28;;;;;;;;;;;;;;;4.25;51.81;101523.06;1763810;79;20267;-64
2021/03/31 03:31:56;;;;;;;;;;;;;;;4.26;51.84;101528.72;1784096;79;21202;-63
2021/03/31 03:34:24;;;;;;;;;;;;;;;4.27;51.81;101527.75;1784229;79;20239;-64
2021/03/31 03:36:52;;;;;;;;;;;;;;;4.29;51.81;101528.42;1775548;79;20311;-64
2021/03/31 03:39:20;;;;;;;;;;;;;;;4.33;51.73;101525.82;1758301;81;20190;-67
2021/03/31 03:41:48;;;;;;;;;;;;;;;4.36;51.73;101530.00;1757487;79;20199;-66
2021/03/31 03:44:16;;;;;;;;;;;;;;;4.37;51.72;101529.00;1769924;79;21324;-66
2021/03/31 03:46:45;;;;;;;;;;;;;;;4.42;51.74;101531.20;1774837;79;20241;-65
2021/03/31 03:49:12;;;;;;;;;;;;;;;4.44;51.79;101531.41;1773173;79;20160;-65
2021/03/31 03:51:42;;;;;;;;;;;;;;;4.46;51.58;101529.92;1771496;79;20156;-65
2021/03/31 03:54:10;;;;;;;;;;;;;;;4.45;51.57;101521.64;1778310;79;20286;-65
2021/03/31 03:56:37;;;;;;;;;;;;;;;4.47;51.60;101521.81;1770376;79;22125;-66
2021/03/31 03:59:19;;;;;;;;;;;;;;;4.50;51.56;101512.72;1774623;79;20140;-68
2021/03/31 04:01:48;;;;;;;;;;;;;;;4.52;51.49;101519.55;1772621;79;20210;-67
2021/03/31 04:04:18;;;;;;;;;;;;;;;4.56;51.40;101518.75;1772087;79;20128;-65
2021/03/31 04:06:46;;;;;;;;;;;;;;;4.61;51.44;101520.47;1777141;79;20153;-65
2021/03/31 04:09:14;;;;;;;;;;;;;;;4.66;51.24;101510.72;1770934;79;21410;-66
2021/03/31 04:11:43;;;;;;;;;;;;;;;4.71;51.22;101511.94;1772218;79;20142;-65
2021/03/31 04:14:11;;;;;;;;;;;;;;;4.78;51.10;101510.00;1773131;79;20179;-64
2021/03/31 04:16:41;;;;;;;;;;;;;;;4.84;51.08;101510.21;1769691;79;20227;-65
2021/03/31 04:19:13;;;;;;;;;;;;;;;4.90;51.13;101506.11;1770033;79;20199;-64
2021/03/31 04:21:42;;;;;;;;;;;;;;;4.96;51.09;101509.52;1771034;79;21266;-66
2021/03/31 04:24:13;;;;;;;;;;;;;;;4.99;51.06;101506.55;1770406;79;20174;-65
2021/03/31 04:26:42;;;;;;;;;;;;;;;5.03;51.15;101511.05;1772467;79;20626;-65
2021/03/31 04:29:11;;;;;;;;;;;;;;;5.04;51.18;101503.42;1772427;79;20217;-66
2021/03/31 04:31:39;;;;;;;;;;;;;;;5.06;51.35;101501.43;1769039;79;20230;-67
2021/03/31 04:34:07;;;;;;;;;;;;;;;5.09;51.35;101501.97;1773463;79;21205;-65
2021/03/31 04:36:35;;;;;;;;;;;;;;;5.14;51.38;101498.84;1777723;79;20599;-67
2021/03/31 04:39:05;;;;;;;;;;;;;;;5.20;51.21;101498.73;1781562;79;20112;-67
2021/03/31 04:41:34;;;;;;;;;;;;;;;5.23;51.17;101503.23;1781467;79;20161;-66
2021/03/31 04:44:02;;;;;;;;;;;;;;;5.27;51.04;101498.45;1780869;79;20311;-67
2021/03/31 04:46:30;;;;;;;;;;;;;;;5.35;50.94;101502.98;1781437;79;22033;-67
2021/03/31 04:48:58;;;;;;;;;;;;;;;5.49;50.89;101497.09;1782539;79;20151;-66
2021/03/31 04:51:26;;;;;;;;;;;;;;;5.72;50.87;101500.54;1755055;79;20231;-65
2021/03/31 04:53:55;;;;;;;;;;;;;;;5.98;50.57;101498.34;1780967;79;20703;-68
2021/03/31 04:56:23;;;;;;;;;;;;;;;6.30;50.16;101502.47;1783347;79;20235;-67
2021/03/31 04:58:51;;;;;;;;;;;;;;;6.67;49.43;101497.72;1784608;79;21266;-67
2021/03/31 05:01:19;;;;;;;;;;;;;;;7.05;48.40;101494.56;1781154;79;20643;-68
2021/03/31 05:03:47;;;;;;;;;;;;;;;7.37;47.59;101497.18;1783436;79;20215;-66
2021/03/31 05:06:15;;;;;;;;;;;;;;;7.66;46.55;101492.30;1781563;79;20286;-66
2021/03/31 05:08:43;;;;;;;;;;;;;;;7.80;46.09;101494.75;1757459;79;20486;-68
2021/03/31 05:11:12;;;;;;;;;;;;;;;7.93;45.85;101497.70;1777131;79;21628;-66
2021/03/31 05:13:41;;;;;;;;;;;;;;;8.18;45.40;101496.27;1780045;79;20163;-64
2021/03/31 05:16:10;;;;;;;;;;;;;;;8.73;44.92;101497.97;1782506;79;20301;-64
2021/03/31 05:18:38;;;;;;;;;;;;;;;9.49;43.18;101493.63;1781639;79;20223;-68
2021/03/31 05:21:06;;;;;;;;;;;;;;;9.70;41.71;101491.06;1783167;79;20132;-64
2021/03/31 05:23:34;;;;;;;;;;;;;;;9.35;42.02;101493.43;1756068;79;20610;-64
2021/03/31 05:26:03;;;;;;;;;;;;;;;8.93;42.51;101490.27;1779972;79;20110;-64
2021/03/31 05:28:32;;;;;;;;;;;;;;;8.59;43.29;101486.70;1744889;81;20151;-64
2021/03/31 05:30:59;;;;;;;;;;;;;;;8.38;44.13;101483.31;1742489;81;20243;-65
2021/03/31 05:33:27;;;;;;;;;;;;;;;8.25;44.52;101487.37;1738136;81;20244;-64
2021/03/31 05:35:56;;;;;;;;;;;;;;;8.16;44.22;101486.27;1741366;81;21219;-64
2021/03/31 05:38:24;;;;;;;;;;;;;;;7.99;44.53;101481.49;1748373;80;20114;-65
2021/03/31 05:40:57;;;;;;;;;;;;;;;7.88;44.74;101486.20;1720994;81;20242;-65
2021/03/31 05:43:25;;;;;;;;;;;;;;;7.71;44.79;101482.78;1753796;81;20158;-65
2021/03/31 05:45:54;;;;;;;;;;;;;;;7.49;45.45;101495.02;1752999;81;20554;-66
2021/03/31 05:48:23;;;;;;;;;;;;;;;7.45;46.14;101484.83;1750063;81;21462;-65
2021/03/31 05:50:51;;;;;;;;;;;;;;;7.57;46.25;101494.16;1756695;81;20243;-65
2021/03/31 05:53:19;;;;;;;;;;;;;;;7.67;45.93;101486.80;1718418;82;20487;-66
2021/03/31 05:55:47;;;;;;;;;;;;;;;7.63;45.48;101486.80;1749617;81;20178;-67
2021/03/31 05:58:15;;;;;;;;;;;;;;;7.52;45.85;101483.15;1663675;85;20410;-67
2021/03/31 06:00:43;;;;;;;;;;;;;;;7.46;46.09;101482.50;1663682;85;21227;-66
2021/03/31 06:03:11;;;;;;;;;;;;;;;7.39;46.13;101477.03;1664327;85;20552;-67
2021/03/31 06:05:39;;;;;;;;;;;;;;;7.31;46.43;101480.52;1667323;85;20294;-65
2021/03/31 06:08:07;;;;;;;;;;;;;;;7.30;46.59;101484.22;1636538;86;20355;-68
2021/03/31 06:10:36;;;;;;;;;;;;;;;7.31;46.42;101483.19;1657353;85;20318;-65
2021/03/31 06:13:05;;;;;;;;;;;;;;;7.31;46.62;101480.52;1658008;85;21230;-65
2021/03/31 06:15:41;;;;;;;;;;;;;;;7.37;46.73;101489.17;1671534;81;20282;-67
2021/03/31 06:18:12;;;;;;;;;;;;;;;7.47;46.75;101483.67;1745973;81;20163;-68
2021/03/31 06:20:48;;;;;;;;;;;;;;;7.58;46.53;101484.31;1745169;81;20193;-64
2021/03/31 06:25:57;;;;;;;;;;;;;;;7.57;46.37;101478.63;1750116;81;21223;-66
2021/03/31 06:28:30;;;;;;;;;;;;;;;7.51;46.54;101483.66;1747188;81;20503;-66
2021/03/31 06:31:16;;;;;;;;;;;;;;;7.40;46.73;101482.67;1747248;81;20235;-67
2021/03/31 06:33:46;;;;;;;;;;;;;;;7.33;46.90;101478.54;1748523;81;20305;-68
2021/03/31 06:36:16;;;;;;;;;;;;;;;7.27;47.16;101480.52;1746514;81;20499;-61
2021/03/31 06:38:50;;;;;;;;;;;;;;;7.27;47.39;101479.70;1748902;81;21204;-64
2021/03/31 06:41:36;;;;;;;;;;;;;;;7.28;47.54;101474.70;1744964;80;20346;-62
2021/03/31 06:44:20;;;;;;;;;;;;;;;7.37;47.54;101475.84;1752907;80;20190;-62
2021/03/31 06:47:00;;;;;;;;;;;;;;;7.57;47.09;101477.30;1744548;80;20300;-63
2021/03/31 06:49:21;;;;;;;;;;;;;;;7.70;46.63;101476.28;1720745;81;20279;-61
2021/03/31 06:51:49;;;;;;;;;;;;;;;7.77;46.53;101474.56;1747077;80;21219;-60
2021/03/31 06:54:21;;;;;;;;;;;;;;;7.89;46.15;101469.67;1711279;80;20274;-62
2021/03/31 06:56:56;;;;;;;;;;;;;;;7.97;45.86;101466.16;1742839;80;20234;-61
2021/03/31 06:59:30;;;;;;;;;;;;;;;8.05;45.76;101463.44;1748289;81;20737;-62
2021/03/31 07:01:58;;;;;;;;;;;;;;;8.19;45.37;101456.02;1748857;81;20227;-62
2021/03/31 07:04:26;;;;;;;;;;;;;;;8.34;45.03;101459.28;1725426;81;22183;-60
2021/03/31 07:07:10;;;;;;;;;;;;;;;8.48;44.84;101453.69;1748172;81;20139;-61
2021/03/31 07:09:39;;;;;;;;;;;;;;;8.56;44.04;101458.48;1745492;81;20238;-62
2021/03/31 07:12:20;;;;;;;;;;;;;;;8.56;43.86;101453.13;1745773;80;20239;-61
2021/03/31 07:14:49;;;;;;;;;;;;;;;8.63;43.92;101449.74;1726532;81;20489;-63
2021/03/31 07:17:28;;;;;;;;;;;;;;;8.66;43.46;101448.08;1722191;81;22349;-61
2021/03/31 07:19:54;;;;;;;;;;;;;;;8.66;43.41;101442.21;1748569;81;20219;-60
2021/03/31 07:22:22;;;;;;;;;;;;;;;8.65;43.66;101445.06;1721172;81;20218;-60
2021/03/31 07:24:52;;;;;;;;;;;;;;;8.67;44.07;101439.02;1743759;80;20566;-62
2021/03/31 07:27:21;;;;;;;;;;;;;;;8.73;42.97;101433.80;1749253;81;20520;-62
2021/03/31 07:30:32;;;;;;;;;;;;;;;8.68;43.19;101432.16;1725062;81;22226;-61
2021/03/31 07:32:23;;;;;;;;;;;;;;;8.69;43.58;101423.66;1693863;81;20242;-62
2021/03/31 07:34:54;;;;;;;;;;;;;;;8.80;43.51;101420.53;1726309;81;20232;-60
2021/03/31 07:37:23;;;;;;;;;;;;;;;8.92;43.09;101422.26;1716522;81;20272;-63
2021/03/31 07:39:53;;;;;;;;;;;;;;;9.02;43.03;101415.33;1711561;81;20320;-61
2021/03/31 07:42:22;;;;;;;;;;;;;;;9.12;43.03;101411.88;1739628;81;22192;-62
2021/03/31 07:44:51;;;;;;;;;;;;;;;9.22;42.73;101412.44;1738667;81;20132;-61
2021/03/31 07:47:19;;;;;;;;;;;;;;;9.34;42.42;101414.67;1740419;81;20231;-61
2021/03/31 07:49:48;;;;;;;;;;;;;;;9.49;42.02;101416.00;1709993;81;20264;-62
2021/03/31 07:52:16;;;;;;;;;;;;;;;9.61;41.95;101406.48;1708046;81;20592;-62
2021/03/31 07:54:44;;;;;;;;;;;;;;;9.69;42.05;101405.53;1735029;81;22641;-63
2021/03/31 07:57:26;;;;;;;;;;;;;;;9.82;41.85;101401.71;1739534;81;20283;-63
2021/03/31 07:59:53;;;;;;;;;;;;;;;9.96;41.39;101399.48;1738697;81;20217;-62
2021/03/31 08:02:21;;;;;;;;;;;;;;;10.07;41.15;101400.86;1734247;81;20256;-63
2021/03/31 08:04:49;;;;;;;;;;;;;;;10.15;41.54;101408.76;1738758;81;20247;-61
2021/03/31 08:07:21;;;;;;;;;;;;;;;10.29;41.16;101402.20;1741679;81;21174;-62
2021/03/31 08:09:49;;;;;;;;;;;;;;;10.44;40.77;101404.34;1710824;81;20517;-62
2021/03/31 08:12:30;;;;;;;;;;;;;;;10.60;41.10;101400.58;1735584;81;20571;-61
2021/03/31 08:14:59;;;;;;;;;;;;;;;10.72;40.63;101395.52;1730564;81;20284;-62
2021/03/31 08:17:29;;;;;;;;;;;;;;;10.77;40.58;101394.93;1729189;81;20228;-60
2021/03/31 08:19:58;;;;;;;;;;;;;;;10.76;40.08;101390.58;1738247;81;20693;-61
2021/03/31 08:22:29;;;;;;;;;;;;;;;10.58;40.52;101387.03;1722849;81;20225;-61
2021/03/31 08:24:58;;;;;;;;;;;;;;;10.35;40.54;101382.72;1731592;81;20231;-62
2021/03/31 08:27:27;;;;;;;;;;;;;;;10.08;41.24;101383.73;1738957;81;20500;-61
2021/03/31 08:29:57;;;;;;;;;;;;;;;9.89;41.98;101381.16;1738835;81;20240;-62
2021/03/31 08:32:26;;;;;;;;;;;;;;;9.87;42.28;101383.21;1738325;81;21228;-61
2021/03/31 08:34:56;;;;;;;;;;;;;;;9.90;42.05;101373.45;1739247;81;20146;-61
2021/03/31 08:37:28;;;;;;;;;;;;;;;9.89;42.25;101373.65;1740036;81;20220;-61
2021/03/31 08:40:00;;;;;;;;;;;;;;;9.80;42.80;101368.42;1746683;80;20265;-61
2021/03/31 08:42:28;;;;;;;;;;;;;;;9.78;42.95;101365.61;1747092;80;20261;-61
2021/03/31 08:45:03;;;;;;;;;;;;;;;9.79;42.89;101366.75;1746735;80;22685;-61
2021/03/31 08:47:31;;;;;;;;;;;;;;;9.85;42.97;101361.64;1747375;80;20144;-62
2021/03/31 08:50:01;;;;;;;;;;;;;;;9.96;43.05;101359.30;1752612;80;20155;-63
2021/03/31 08:52:34;;;;;;;;;;;;;;;10.03;42.85;101350.01;1750052;80;21060;-61
2021/03/31 08:55:05;;;;;;;;;;;;;;;10.06;42.99;101359.00;1753844;80;20499;-58
2021/03/31 08:57:33;;;;;;;;;;;;;;;10.13;43.51;101348.36;1750256;80;22386;-59
2021/03/31 09:00:01;;;;;;;;;;;;;;;10.21;43.59;101349.56;1746506;80;20424;-60
2021/03/31 09:02:31;;;;;;;;;;;;;;;10.23;43.04;101342.66;1751475;80;20488;-63
2021/03/31 09:05:02;;;;;;;;;;;;;;;10.13;43.44;101346.50;1745880;80;20290;-60
2021/03/31 09:07:30;;;;;;;;;;;;;;;10.12;43.56;101341.34;1747375;80;20271;-59
2021/03/31 09:10:00;;;;;;;;;;;;;;;10.20;43.46;101337.17;1741402;80;21371;-61
2021/03/31 09:12:29;;;;;;;;;;;;;;;10.21;43.45;101341.52;1750287;80;20361;-59
2021/03/31 09:14:59;;;;;;;;;;;;;;;10.26;43.61;101335.58;1746979;80;20294;-59
2021/03/31 09:17:29;;;;;;;;;;;;;;;10.27;42.49;101327.86;1747266;80;20233;-59
2021/03/31 09:20:04;;;;;;;;;;;;;;;10.22;42.76;101327.59;1756523;80;20252;-61
2021/03/31 09:22:33;;;;;;;;;;;;;;;10.21;43.10;101329.46;1751580;80;21273;-59
2021/03/31 09:25:03;;;;;;;;;;;;;;;10.32;43.03;101324.08;1750582;80;20207;-60
2021/03/31 09:27:33;;;;;;;;;;;;;;;10.45;42.77;101322.06;1746682;80;20261;-60
2021/03/31 09:30:05;;;;;;;;;;;;;;;10.60;42.62;101319.28;1753415;80;20318;-59
2021/03/31 09:32:35;;;;;;;;;;;;;;;10.75;41.96;101310.64;1746656;80;20218;-60
2021/03/31 09:35:13;;;;;;;;;;;;;;;10.93;41.82;101310.12;1744964;80;21448;-58
2021/03/31 09:37:44;;;;;;;;;;;;;;;11.09;41.15;101309.50;1747066;80;20275;-59
2021/03/31 09:40:28;;;;;;;;;;;;;;;11.23;39.95;101307.18;1742260;81;20234;-58
2021/03/31 09:43:00;;;;;;;;;;;;;;;11.29;39.93;101305.55;1751716;81;20563;-60
2021/03/31 09:45:30;;;;;;;;;;;;;;;11.31;40.24;101308.89;1748537;81;20197;-60
2021/03/31 09:47:58;;;;;;;;;;;;;;;11.34;40.08;101306.62;1746755;81;21211;-60
2021/03/31 09:50:27;;;;;;;;;;;;;;;11.40;40.60;101302.31;1749710;81;20496;-59
2021/03/31 09:52:56;;;;;;;;;;;;;;;11.49;40.24;101291.70;1746974;81;20308;-59
2021/03/31 09:55:24;;;;;;;;;;;;;;;11.57;39.94;101293.36;1745821;81;20246;-59
2021/03/31 09:57:52;;;;;;;;;;;;;;;11.68;40.16;101287.94;1749247;81;20468;-60
2021/03/31 10:00:22;;;;;;;;;;;;;;;11.83;39.24;101278.36;1747629;81;21213;-59
2021/03/31 10:02:51;;;;;;;;;;;;;;;11.95;39.05;101279.95;1750663;81;20255;-59
2021/03/31 10:05:20;;;;;;;;;;;;;;;11.98;39.35;101280.36;1751600;81;20243;-59
2021/03/31 10:07:56;;;;;;;;;;;;;;;12.07;39.06;101274.27;1747242;81;20291;-59
2021/03/31 10:10:51;;;;;;;;;;;;;;;12.14;39.18;101277.79;1746247;81;20308;-60
2021/03/31 10:13:27;;;;;;;;;;;;;;;12.31;38.96;101266.62;1824108;77;20300;-60
2021/03/31 10:15:59;;;;;;;;;;;;;;;12.33;38.19;101270.76;1772891;79;20135;-60
2021/03/31 10:18:30;;;;;;;;;;;;;;;12.31;38.31;101266.62;1802736;79;20584;-60
2021/03/31 10:21:02;;;;;;;;;;;;;;;12.27;38.75;101264.34;1798623;79;20555;-59
2021/03/31 10:23:33;;;;;;;;;;;;;;;12.32;37.80;101262.91;1796364;79;20225;-60
2021/03/31 10:26:28;;;;;;;;;;;;;;;12.32;37.33;101257.53;1795952;79;20202;-59
2021/03/31 10:29:03;;;;;;;;;;;;;;;12.34;37.45;101250.09;1805469;79;20486;-60
2021/03/31 10:31:39;;;;;;;;;;;;;;;12.33;37.90;101253.81;1795059;79;21538;-59
2021/03/31 10:34:10;;;;;;;;;;;;;;;12.37;38.23;101245.12;1798195;79;20194;-59
2021/03/31 10:37:01;;;;;;;;;;;;;;;12.47;37.72;101243.85;1807744;79;20129;-60
2021/03/31 10:48:37;;;;;;;;;;;;;;;12.72;37.54;101242.16;1800006;78;20215;-59
2021/03/31 10:50:23;;;;;;;;;;;;;;;12.82;37.20;101238.20;1775598;79;20183;-59
2021/03/31 10:52:57;;;;;;;;;;;;;;;12.86;37.18;101237.55;1794559;79;20137;-60
2021/03/31 10:55:22;;;;;;;;;;;;;;;12.91;37.73;101236.41;1797326;79;20263;-59
2021/03/31 10:57:49;;;;;;;;;;;;;;;12.96;36.83;101237.94;1802067;79;21209;-59
2021/03/31 11:00:20;;;;;;;;;;;;;;;12.99;36.87;101235.88;1799157;79;20209;-59
2021/03/31 11:02:48;;;;;;;;;;;;;;;13.01;36.41;101235.95;1802361;79;20493;-59
2021/03/31 11:05:17;;;;;;;;;;;;;;;12.95;36.48;101237.62;1804722;79;20254;-60
2021/03/31 11:07:45;;;;;;;;;;;;;;;12.93;36.87;101238.36;1782362;79;20150;-61
2021/03/31 11:10:14;;;;;;;;;;;;;;;12.96;36.60;101232.55;1776639;79;21191;-59
2021/03/31 11:12:44;;;;;;;;;;;;;;;12.96;36.22;101230.39;1768153;79;20164;-60
2021/03/31 11:15:15;;;;;;;;;;;;;;;12.90;36.71;101233.94;1780959;79;20505;-60
2021/03/31 11:25:53;;;;;;;;;;;;;;;12.94;36.02;101218.99;1780029;80;20201;-59
2021/03/31 11:28:21;;;;;;;;;;;;;;;12.82;36.55;101221.52;1779620;79;20251;-59
2021/03/31 11:30:51;;;;;;;;;;;;;;;12.78;36.88;101222.48;1778087;80;20279;-60
2021/03/31 11:33:23;;;;;;;;;;;;;;;12.78;36.88;101218.44;1776261;80;20275;-59
2021/03/31 11:35:53;;;;;;;;;;;;;;;12.80;36.98;101216.35;1772637;80;20158;-59
2021/03/31 11:38:20;;;;;;;;;;;;;;;12.84;36.78;101214.58;1779347;80;20276;-60
2021/03/31 11:40:49;;;;;;;;;;;;;;;12.84;36.41;101209.20;1776907;80;20148;-59
2021/03/31 11:43:17;;;;;;;;;;;;;;;12.84;36.75;101206.51;1779478;80;20142;-60
2021/03/31 11:45:47;;;;;;;;;;;;;;;12.81;36.43;101205.09;1776796;80;20318;-60
2021/03/31 11:48:15;;;;;;;;;;;;;;;12.74;36.50;101200.25;1764036;80;21422;-61
2021/03/31 11:50:43;;;;;;;;;;;;;;;12.70;37.10;101197.14;1777441;80;20507;-59
2021/03/31 11:53:13;;;;;;;;;;;;;;;12.69;36.85;101196.85;1777144;80;20231;-61
2021/03/31 11:55:41;;;;;;;;;;;;;;;12.72;36.73;101197.77;1780095;80;20138;-59
2021/03/31 11:58:09;;;;;;;;;;;;;;;12.66;36.57;101195.94;1775944;80;20227;-60
2021/03/31 12:00:37;;;;;;;;;;;;;;;12.58;36.87;101187.55;1777783;80;22154;-63
2021/03/31 12:03:05;;;;;;;;;;;;;;;12.56;37.00;101188.83;1766790;80;20286;-62
2021/03/31 12:05:32;;;;;;;;;;;;;;;12.54;36.78;101179.59;1776958;79;20549;-59
2021/03/31 12:08:00;;;;;;;;;;;;;;;12.51;36.88;101178.67;1777943;80;20514;-60
2021/03/31 12:10:28;;;;;;;;;;;;;;;12.50;36.97;101174.86;1776375;80;20232;-60
2021/03/31 12:12:56;;;;;;;;;;;;;;;12.49;36.98;101174.04;1679417;84;21386;-59
2021/03/31 12:15:24;;;;;;;;;;;;;;;12.48;36.93;101170.22;1679480;85;20570;-58
2021/03/31 12:17:52;;;;;;;;;;;;;;;12.45;37.16;101167.42;1656569;85;20276;-60
2021/03/31 12:20:21;;;;;;;;;;;;;;;12.41;37.05;101168.38;1679444;85;20317;-60
2021/03/31 12:22:50;;;;;;;;;;;;;;;12.40;36.68;101169.41;1679430;85;20325;-60
2021/03/31 12:25:20;;;;;;;;;;;;;;;12.37;36.91;101163.11;1679518;84;21223;-61
2021/03/31 12:27:58;;;;;;;;;;;;;;;12.38;36.80;101154.52;1831181;77;20674;-60
2021/03/31 12:30:25;;;;;;;;;;;;;;;12.34;37.34;101154.12;1803132;79;20160;-60
2021/03/31 12:32:53;;;;;;;;;;;;;;;12.39;37.51;101152.14;1798917;79;21203;-59
2021/03/31 12:35:21;;;;;;;;;;;;;;;12.45;37.29;101152.64;1796205;79;20125;-62
2021/03/31 12:37:49;;;;;;;;;;;;;;;12.48;37.42;101150.86;1802571;79;20204;-56
2021/03/31 12:40:22;;;;;;;;;;;;;;;12.56;37.38;101147.14;1804899;79;20170;-57
2021/03/31 12:42:50;;;;;;;;;;;;;;;12.61;37.09;101144.09;1797325;79;20192;-64
2021/03/31 12:45:19;;;;;;;;;;;;;;;12.65;37.11;101140.98;1800005;79;21200;-58
2021/03/31 12:47:49;;;;;;;;;;;;;;;12.66;37.56;101133.22;1799768;79;20137;-59
2021/03/31 12:50:21;;;;;;;;;;;;;;;12.62;37.56;101137.69;1801915;79;20115;-57
2021/03/31 12:52:59;;;;;;;;;;;;;;;12.60;37.46;101130.86;1669323;84;20580;-59
2021/03/31 12:55:36;;;;;;;;;;;;;;;12.64;37.24;101124.55;1663892;85;20256;-58
2021/03/31 12:58:08;;;;;;;;;;;;;;;12.65;37.06;101122.14;1668265;85;21227;-57
2021/03/31 13:00:34;;;;;;;;;;;;;;;12.62;36.99;101114.82;1634441;86;20243;-59
2021/03/31 13:03:04;;;;;;;;;;;;;;;12.60;37.30;101114.22;1635396;86;20277;-58
2021/03/31 13:09:04;;;;;;;;;;;;;;;12.70;37.42;101108.36;1628146;87;20552;-58
2021/03/31 13:43:03;;;;;;;;;;;;;;;12.85;36.86;101081.17;1696955;83;21321;-60
2021/03/31 13:49:06;;;;;;;;;;;;;;;12.90;37.04;101064.41;1701941;83;20162;-59
2021/03/31 13:55:09;;;;;;;;;;;;;;;12.95;36.88;101065.38;1697806;83;20153;-59
2021/03/31 14:01:08;;;;;;;;;;;;;;;13.00;37.15;101052.64;1696802;83;20255;-59
2021/03/31 14:07:06;;;;;;;;;;;;;;;13.06;36.63;101052.27;1697114;83;20171;-59